Time;durP1;ratioP1;P1;durP2;ratioP2;P2;SDS_P1;SDS_P2;PMS_P1;PMS_P2;Temp;Humidity;BMP_temperature;BMP_pressure;BME280_temperature;BME280_humidity;BME280_pressure;Samples;Min_cycle;Max_cycle;Signal;HPM_P1;HPM_P2
2022/12/15 00:40:13;;;;;;;68.25;33.58;;;;;;;-3.21;89.44;99417.62;1722673;81;25976;-76
2022/12/15 00:42:39;;;;;;;82.17;37.13;;;;;;;-3.21;89.32;99420.73;1731272;81;28265;-76
2022/12/15 00:45:07;;;;;;;73.22;36.65;;;;;;;-3.24;89.23;99419.20;1731921;81;26387;-76
2022/12/15 00:47:33;;;;;;;73.78;35.95;;;;;;;-3.23;89.32;99418.22;1733223;81;25786;-76
2022/12/15 01:20:24;;;;;;;65.55;30.50;;;;;;;-3.25;88.62;99418.83;1733385;81;26467;-76
2022/12/15 01:22:54;;;;;;;69.87;33.48;;;;;;;-3.25;88.42;99421.95;1733865;81;28525;-76
2022/12/15 01:25:26;;;;;;;73.62;31.27;;;;;;;-3.25;88.42;99421.95;1733284;82;25713;-76
2022/12/15 01:27:52;;;;;;;62.70;31.48;;;;;;;-3.26;88.44;99421.13;1736939;81;26218;-76
2022/12/15 01:30:23;;;;;;;65.55;31.33;;;;;;;-3.26;88.43;99421.13;1733590;82;25855;-76
2022/12/15 01:32:49;;;;;;;63.75;32.25;;;;;;;-3.27;88.26;99420.75;1730860;82;33037;-76
2022/12/15 01:35:16;;;;;;;62.03;30.15;;;;;;;-3.27;88.14;99423.84;1733859;81;28151;-76
2022/12/15 01:37:44;;;;;;;58.50;30.35;;;;;;;-3.28;87.92;99422.20;1727681;82;25824;-76
2022/12/15 01:43:01;;;;;;;63.68;31.95;;;;;;;-3.30;87.71;99422.81;1732115;81;25797;-76
2022/12/15 01:45:33;;;;;;;64.62;31.77;;;;;;;-3.37;87.74;99409.40;1731683;81;25812;-76
2022/12/15 01:48:08;;;;;;;62.13;31.93;;;;;;;-3.29;87.78;99418.75;1720951;83;28243;-76
2022/12/15 01:50:45;;;;;;;64.97;31.37;;;;;;;-3.28;87.76;99417.80;1731110;81;25820;-76
2022/12/15 01:53:14;;;;;;;62.58;30.88;;;;;;;-3.29;87.73;99421.36;1710027;83;25865;-76
2022/12/15 01:55:43;;;;;;;61.88;31.33;;;;;;;-3.29;87.75;99417.44;1724335;83;26038;-76
2022/12/15 01:58:14;;;;;;;65.45;32.08;;;;;;;-3.29;87.67;99412.20;1700348;82;25901;-77
2022/12/15 02:00:40;;;;;;;;;;;;;;;-3.33;87.59;99413.41;1729982;81;27424;-77
2022/12/15 02:03:07;;;;;;;69.25;31.23;;;;;;;-3.33;87.62;99417.81;1731270;81;25917;-76
2022/12/15 02:05:35;;;;;;;65.17;30.68;;;;;;;-3.37;87.78;99422.48;1732877;81;25760;-76
2022/12/15 02:08:02;;;;;;;60.92;30.65;;;;;;;-3.38;87.76;99420.01;1732933;82;26503;-76
2022/12/15 02:10:37;;;;;;;73.35;31.35;;;;;;;-3.38;87.64;99419.50;1716083;82;26552;-76
2022/12/15 02:13:29;;;;;;;70.22;31.80;;;;;;;-3.40;87.64;99420.11;1702592;83;28356;-76
2022/12/15 02:16:13;;;;;;;58.10;29.35;;;;;;;-3.40;87.59;99425.34;1715591;82;26497;-76
2022/12/15 02:19:12;;;;;;;59.42;30.95;;;;;;;-3.38;87.87;99423.43;1743383;81;25917;-76
2022/12/15 02:21:55;;;;;;;61.53;30.23;;;;;;;-3.38;87.87;99423.43;1735179;81;25853;-75
2022/12/15 02:24:53;;;;;;;60.50;29.30;;;;;;;-3.37;87.78;99421.18;1747379;81;25970;-75
2022/12/15 02:27:58;;;;;;;63.63;30.90;;;;;;;-3.36;87.68;99427.25;1736414;81;28296;-76
2022/12/15 02:31:48;;;;;;;63.90;30.72;;;;;;;-3.36;87.58;99430.67;1725280;83;25781;-75
2022/12/15 02:33:26;;;;;;;63.05;33.13;;;;;;;-3.36;87.41;99425.94;1729875;81;26627;-75
2022/12/15 02:36:06;;;;;;;60.60;29.02;;;;;;;-3.37;87.36;99435.58;1733017;81;25781;-76
2022/12/15 02:38:36;;;;;;;60.03;29.53;;;;;;;-3.39;87.26;99435.34;1735108;81;25891;-75
2022/12/15 02:41:07;;;;;;;64.65;32.40;;;;;;;-3.38;87.41;99439.64;1723473;81;28281;-75
2022/12/15 02:43:37;;;;;;;62.83;29.35;;;;;;;-3.37;87.43;99443.43;1693546;83;25836;-76
2022/12/15 02:46:27;;;;;;;64.58;30.02;;;;;;;-3.38;87.46;99449.61;1697937;83;25830;-76
2022/12/15 02:49:08;;;;;;;62.33;30.55;;;;;;;-3.38;87.43;99448.80;1668174;84;25744;-76
2022/12/15 02:51:46;;;;;;;67.50;29.72;;;;;;;-3.39;87.46;99447.97;1657119;81;25849;-75
2022/12/15 02:54:18;;;;;;;61.77;29.75;;;;;;;-3.37;87.50;99447.83;1723275;81;27456;-75
2022/12/15 02:57:14;;;;;;;65.67;31.52;;;;;;;-3.35;87.58;99448.53;1725184;83;25845;-75
2022/12/15 02:59:45;;;;;;;60.45;29.70;;;;;;;-3.33;87.61;99450.07;1743850;81;26394;-75
2022/12/15 03:02:13;;;;;;;64.95;30.92;;;;;;;-3.31;87.53;99453.39;1724981;81;25730;-75
2022/12/15 03:04:42;;;;;;;65.72;31.62;;;;;;;-3.30;87.46;99452.92;1734942;82;25730;-75
2022/12/15 03:07:09;;;;;;;61.45;30.12;;;;;;;-3.28;87.48;99453.62;1719158;81;27437;-75
2022/12/15 03:09:35;;;;;;;62.05;30.50;;;;;;;-3.28;87.45;99449.69;1733397;82;25916;-75
2022/12/15 03:12:02;;;;;;;57.98;30.27;;;;;;;-3.27;87.32;99443.01;1744703;81;25832;-75
2022/12/15 03:14:28;;;;;;;61.90;30.43;;;;;;;-3.31;87.30;99439.45;1746234;81;25761;-75
2022/12/15 03:16:55;;;;;;;66.87;31.60;;;;;;;-3.26;87.42;99445.99;1750139;81;25718;-75
2022/12/15 03:19:21;;;;;;;62.17;32.20;;;;;;;-3.29;87.49;99435.77;1749321;81;28537;-75
2022/12/15 03:21:47;;;;;;;63.25;31.20;;;;;;;-3.22;87.49;99446.09;1739940;81;25873;-75
2022/12/15 03:24:14;;;;;;;60.28;31.15;;;;;;;-3.26;87.42;99438.61;1759325;81;25723;-75
2022/12/15 03:26:40;;;;;;;63.35;32.63;;;;;;;-3.26;87.42;99438.61;1740841;81;25756;-75
2022/12/15 03:29:06;;;;;;;65.35;32.25;;;;;;;-3.19;87.52;99458.09;1720853;83;25917;-75
2022/12/15 03:31:33;;;;;;;62.45;31.57;;;;;;;-3.15;87.54;99464.73;1731291;81;27458;-75
2022/12/15 03:33:59;;;;;;;67.67;31.07;;;;;;;-3.14;87.58;99458.52;1726711;81;26047;-75
2022/12/15 03:36:25;;;;;;;58.30;31.42;;;;;;;-3.14;87.58;99458.52;1721049;81;25779;-75
2022/12/15 03:38:51;;;;;;;63.58;31.55;;;;;;;-3.11;87.53;99462.20;1703265;83;26773;-75
2022/12/15 03:41:18;;;;;;;66.42;32.20;;;;;;;-3.10;87.57;99461.23;1714573;82;25868;-75
2022/12/15 03:43:45;;;;;;;69.22;33.18;;;;;;;-3.09;87.45;99466.00;1728732;81;27484;-75
2022/12/15 03:46:11;;;;;;;62.90;30.48;;;;;;;-3.09;87.28;99472.08;1715306;83;26418;-75
2022/12/15 03:48:38;;;;;;;67.40;36.10;;;;;;;-3.09;87.28;99472.08;1723591;83;26123;-75
2022/12/15 03:51:04;;;;;;;63.87;31.30;;;;;;;-3.09;87.35;99469.93;1744469;81;26531;-75
2022/12/15 03:53:30;;;;;;;60.75;31.23;;;;;;;-3.08;87.36;99468.98;1738700;81;25836;-75
2022/12/15 03:55:58;;;;;;;59.20;30.35;;;;;;;-3.08;87.36;99468.98;1740039;81;27470;-75
2022/12/15 03:58:25;;;;;;;66.87;32.38;;;;;;;-3.08;87.37;99467.20;1741944;81;26401;-75
2022/12/15 04:00:51;;;;;;;61.77;30.60;;;;;;;-3.06;87.33;99470.99;1732753;82;26433;-75
2022/12/15 04:03:17;;;;;;;64.58;31.35;;;;;;;-3.05;87.27;99476.57;1730856;82;26249;-75
2022/12/15 04:05:44;;;;;;;63.60;31.68;;;;;;;-3.05;87.31;99474.79;1725187;82;25799;-75
2022/12/15 04:08:11;;;;;;;63.35;32.55;;;;;;;-3.05;87.29;99471.33;1726231;81;28260;-75
2022/12/15 04:10:38;;;;;;;61.75;31.97;;;;;;;-3.07;87.10;99478.02;1727307;81;26478;-75
2022/12/15 04:13:08;;;;;;;68.85;33.42;;;;;;;-3.09;87.14;99474.70;1700462;83;25958;-75
2022/12/15 04:15:37;;;;;;;61.90;32.15;;;;;;;-3.09;87.29;99477.78;1740260;81;25829;-75
2022/12/15 04:18:08;;;;;;;59.33;31.02;;;;;;;-3.08;87.34;99488.16;1725893;81;26235;-75
2022/12/15 04:20:35;;;;;;;64.20;31.60;;;;;;;-3.07;87.39;99487.19;1740423;81;27684;-75
2022/12/15 04:23:01;;;;;;;62.25;31.20;;;;;;;-3.06;87.33;99490.64;1724503;83;26350;-75
2022/12/15 05:32:01;;;;;;;71.37;34.98;;;;;;;-3.05;87.72;99582.66;1706131;81;26208;-75
2022/12/15 05:34:31;;;;;;;72.32;34.13;;;;;;;-3.05;87.72;99582.66;1705616;81;25793;-75
2022/12/15 05:37:01;;;;;;;76.75;37.98;;;;;;;-3.04;87.86;99583.86;1704813;82;25920;-75
2022/12/15 05:39:27;;;;;;;74.47;35.70;;;;;;;-3.02;87.74;99602.90;1711889;81;25786;-75
2022/12/15 05:41:55;;;;;;;70.55;35.03;;;;;;;-3.02;87.74;99602.90;1708639;82;27433;-75
2022/12/15 05:44:23;;;;;;;71.82;34.30;;;;;;;-3.01;87.88;99605.86;1708271;81;25744;-75
2022/12/15 05:46:50;;;;;;;68.15;34.40;;;;;;;-3.03;87.90;99603.84;1708505;81;25897;-75
2022/12/15 05:49:17;;;;;;;73.07;35.45;;;;;;;-2.96;87.86;99612.03;1711066;81;25780;-75
2022/12/15 05:51:46;;;;;;;74.75;37.95;;;;;;;-2.97;87.70;99609.88;1706240;81;25809;-75
2022/12/15 05:54:17;;;;;;;72.32;36.95;;;;;;;-2.94;87.88;99625.36;1706775;82;28384;-75
2022/12/15 05:56:44;;;;;;;76.67;35.60;;;;;;;-2.93;87.90;99624.89;1719205;81;25726;-75
2022/12/15 05:59:11;;;;;;;75.67;37.93;;;;;;;-2.93;87.85;99629.63;1714899;81;25760;-75
2022/12/15 06:01:37;;;;;;;71.77;37.15;;;;;;;-2.90;87.91;99627.24;1710011;82;25766;-75
2022/12/15 06:04:04;;;;;;;71.45;35.78;;;;;;;-2.91;87.82;99632.15;1729988;81;25773;-75
2022/12/15 06:06:30;;;;;;;69.47;35.92;;;;;;;-2.89;87.81;99641.55;1723844;81;28226;-75
2022/12/15 06:08:57;;;;;;;67.37;35.50;;;;;;;-2.89;87.79;99649.41;1713104;82;25743;-75
2022/12/15 06:11:23;;;;;;;77.50;37.90;;;;;;;-2.87;87.82;99650.59;1720521;81;25776;-75
2022/12/15 06:13:49;;;;;;;80.83;37.20;;;;;;;-2.87;87.82;99650.59;1723980;81;25847;-75
2022/12/15 06:16:19;;;;;;;74.35;37.53;;;;;;;-2.86;87.92;99658.31;1734822;81;25920;-75
2022/12/15 06:18:51;;;;;;;70.15;36.55;;;;;;;-2.83;87.93;99662.48;1731912;81;27440;-75
2022/12/15 06:21:22;;;;;;;80.45;42.88;;;;;;;-2.81;87.91;99671.05;1743739;81;25984;-76
2022/12/15 06:23:49;;;;;;;90.57;46.92;;;;;;;-2.81;87.87;99673.19;1738818;81;26001;-75
2022/12/15 06:26:26;;;;;;;85.10;44.65;;;;;;;-2.82;88.18;99674.14;1737399;82;25933;-75
2022/12/15 06:28:56;;;;;;;72.78;37.63;;;;;;;-2.75;88.20;99678.41;1742038;81;25926;-75
2022/12/15 06:31:24;;;;;;;82.62;43.00;;;;;;;-2.75;88.02;99686.27;1734551;82;33780;-75
2022/12/15 06:33:52;;;;;;;78.65;41.83;;;;;;;-2.74;87.88;99695.80;1736333;82;25978;-75
2022/12/15 06:36:18;;;;;;;84.00;41.37;;;;;;;-2.79;87.64;99690.94;1734164;81;25751;-75
2022/12/15 06:38:45;;;;;;;86.85;43.50;;;;;;;-2.74;87.80;99701.05;1719924;83;26445;-75
2022/12/15 06:41:16;;;;;;;86.47;44.35;;;;;;;-2.73;87.71;99724.50;1733413;81;25830;-75
2022/12/15 06:43:43;;;;;;;94.22;43.85;;;;;;;-2.73;87.71;99724.50;1736890;81;27421;-75
2022/12/15 06:46:09;;;;;;;92.75;43.92;;;;;;;-2.74;87.63;99722.85;1709337;82;25682;-75
2022/12/15 06:48:36;;;;;;;83.07;40.70;;;;;;;-2.73;87.66;99737.60;1730033;81;25761;-76
2022/12/15 06:51:07;;;;;;;81.72;42.98;;;;;;;-2.73;87.69;99734.14;1707540;82;26317;-75
2022/12/15 06:53:37;;;;;;;86.30;43.83;;;;;;;-2.72;87.65;99739.28;1720891;81;25758;-75
2022/12/15 06:56:07;;;;;;;92.80;44.80;;;;;;;-2.73;87.58;99736.29;1729561;81;27462;-75
2022/12/15 06:58:33;;;;;;;84.15;41.48;;;;;;;-2.73;87.59;99745.94;1734326;81;25937;-75
2022/12/15 07:01:04;;;;;;;91.90;43.90;;;;;;;-2.73;87.67;99742.84;1701605;83;25353;-75
2022/12/15 07:03:30;;;;;;;93.90;45.50;;;;;;;-2.71;87.72;99749.27;1697926;82;26222;-75
2022/12/15 07:06:07;;;;;;;95.87;45.52;;;;;;;-2.70;87.74;99751.78;1708691;81;25917;-74
2022/12/15 07:08:33;;;;;;;88.10;45.05;;;;;;;-2.69;87.65;99753.44;1726973;82;28232;-75
2022/12/15 07:11:03;;;;;;;89.72;45.25;;;;;;;-2.69;87.64;99753.44;1721377;82;25886;-75
2022/12/15 07:13:30;;;;;;;88.00;42.48;;;;;;;-2.68;87.67;99756.42;1720211;82;26443;-75
2022/12/15 07:16:05;;;;;;;90.85;46.00;;;;;;;-2.65;87.79;99760.59;1725160;81;25774;-75
2022/12/15 07:18:33;;;;;;;91.50;47.75;;;;;;;-2.63;87.69;99765.23;1734583;82;25794;-75
2022/12/15 07:21:06;;;;;;;91.82;47.48;;;;;;;-2.64;87.62;99761.77;1738917;81;28248;-75
2022/12/15 07:23:33;;;;;;;92.30;45.38;;;;;;;-2.63;87.66;99764.73;1729095;82;26547;-75
2022/12/15 07:26:07;;;;;;;100.30;49.67;;;;;;;-2.61;87.64;99762.81;1722783;83;25446;-75
2022/12/15 07:28:36;;;;;;;95.65;47.48;;;;;;;-2.68;87.70;99747.25;1733068;81;25834;-75
2022/12/15 07:31:07;;;;;;;96.10;48.78;;;;;;;-2.59;87.58;99771.38;1740042;81;25744;-75
2022/12/15 07:33:34;;;;;;;;;;;;;;;-2.57;87.60;99775.22;1728625;83;28331;-75
2022/12/15 07:36:02;;;;;;;106.05;48.52;;;;;;;-2.57;87.61;99779.98;1724672;83;25952;-75
2022/12/15 07:38:29;;;;;;;94.40;47.10;;;;;;;-2.58;87.32;99799.28;1741436;81;25808;-75
2022/12/15 07:41:02;;;;;;;108.15;53.48;;;;;;;-2.58;87.32;99799.28;1699535;83;25933;-75
2022/12/15 07:43:29;;;;;;;100.50;48.58;;;;;;;-2.59;87.58;99806.77;1740848;81;25760;-75
2022/12/15 07:45:56;;;;;;;100.05;49.27;;;;;;;-2.57;87.48;99810.61;1700281;83;27454;-75
2022/12/15 07:48:22;;;;;;;98.95;48.87;;;;;;;-2.59;87.58;99809.39;1731602;81;25754;-75
2022/12/15 07:50:50;;;;;;;101.85;52.08;;;;;;;-2.58;87.62;99817.63;1732524;81;26416;-75
2022/12/15 07:53:16;;;;;;;102.38;50.33;;;;;;;-2.53;87.61;99827.75;1725030;81;26610;-75
2022/12/15 07:55:43;;;;;;;109.17;51.58;;;;;;;-2.53;87.61;99827.75;1733113;81;25249;-75
2022/12/15 07:58:09;;;;;;;107.87;52.67;;;;;;;-2.50;87.70;99826.17;1733034;81;28311;-75
2022/12/15 08:00:35;;;;;;;105.25;53.23;;;;;;;-2.50;87.70;99826.17;1733286;81;25914;-75
2022/12/15 08:03:02;;;;;;;105.75;53.00;;;;;;;-2.49;87.75;99827.39;1737014;81;25777;-75
2022/12/15 08:05:28;;;;;;;106.92;53.63;;;;;;;-2.50;87.70;99828.80;1732523;81;25758;-75
2022/12/15 08:07:57;;;;;;;109.00;57.45;;;;;;;-2.47;87.76;99832.03;1735476;81;25816;-75
2022/12/15 08:10:23;;;;;;;119.10;62.17;;;;;;;-2.48;87.63;99852.63;1724069;83;28314;-75
2022/12/15 08:12:50;;;;;;;131.27;74.53;;;;;;;-2.48;87.63;99852.63;1696264;82;25969;-75
2022/12/15 08:15:18;;;;;;;132.45;70.83;;;;;;;-2.52;87.68;99851.69;1728349;81;25824;-75
2022/12/15 08:17:45;;;;;;;126.25;63.85;;;;;;;-2.47;87.80;99858.25;1725297;83;26282;-75
2022/12/15 08:20:12;;;;;;;172.02;85.45;;;;;;;-2.46;87.83;99869.58;1717771;82;25735;-75
2022/12/15 08:22:38;;;;;;;141.50;67.62;;;;;;;-2.50;87.86;99862.88;1739788;81;27523;-75
2022/12/15 08:25:05;;;;;;;179.18;80.80;;;;;;;-2.45;87.87;99873.84;1733470;82;25794;-74
2022/12/15 08:27:31;;;;;;;213.22;93.92;;;;;;;-2.44;87.93;99882.89;1739358;81;25780;-75
2022/12/15 08:29:58;;;;;;;257.25;113.00;;;;;;;-2.47;87.78;99875.77;1735277;82;25849;-75
2022/12/15 08:32:24;;;;;;;226.65;101.25;;;;;;;-2.38;88.05;99885.05;1730746;82;25935;-75
2022/12/15 08:34:50;;;;;;;270.93;112.35;;;;;;;-2.33;88.08;99891.22;1729579;82;27441;-75
2022/12/15 08:37:16;;;;;;;184.80;80.65;;;;;;;-2.30;88.08;99889.67;1739197;81;26081;-75
2022/12/15 08:39:43;;;;;;;127.53;61.30;;;;;;;-2.28;88.01;99898.72;1738471;81;25842;-75
2022/12/15 08:42:09;;;;;;;120.53;60.35;;;;;;;-2.27;87.94;99897.78;1699773;83;26407;-75
2022/12/15 08:44:35;;;;;;;104.17;54.33;;;;;;;-2.27;87.83;99900.41;1731903;81;25794;-75
2022/12/15 08:47:02;;;;;;;110.37;54.00;;;;;;;-2.37;87.60;99905.53;1733010;81;27599;-75
2022/12/15 08:49:28;;;;;;;97.60;46.95;;;;;;;-2.37;87.60;99905.53;1730422;81;25774;-75
2022/12/15 08:51:54;;;;;;;77.37;39.70;;;;;;;-2.30;87.86;99917.69;1733271;82;25729;-75
2022/12/15 08:54:20;;;;;;;77.62;40.88;;;;;;;-2.31;87.59;99911.63;1718828;83;26505;-74
2022/12/15 08:56:49;;;;;;;72.55;36.08;;;;;;;-2.35;87.34;99914.95;1704216;82;25815;-73
2022/12/15 08:59:15;;;;;;;81.78;40.28;;;;;;;-2.36;87.15;99916.39;1722685;81;28340;-85
2022/12/15 09:01:44;;;;;;;82.27;43.40;;;;;;;-2.40;87.28;99918.91;1732159;81;26114;-88
2022/12/15 09:04:10;;;;;;;80.07;39.73;;;;;;;-2.38;87.30;99923.55;1702559;84;25811;-86
2022/12/15 09:06:36;;;;;;;80.65;37.95;;;;;;;-2.36;87.29;99927.73;1726364;83;26375;-86
2022/12/15 09:09:07;;;;;;;73.92;36.68;;;;;;;-2.35;87.08;99928.53;1700861;83;25755;-87
2022/12/15 09:11:34;;;;;;;77.82;39.88;;;;;;;-2.36;87.04;99929.03;1733919;81;27621;-90
2022/12/15 09:14:03;;;;;;;82.67;41.37;;;;;;;-2.35;87.07;99930.69;1731954;81;25850;-86
2022/12/15 09:16:30;;;;;;;72.35;38.35;;;;;;;-2.33;87.08;99938.92;1741428;81;25785;-81
2022/12/15 09:18:59;;;;;;;66.40;32.85;;;;;;;-2.38;86.80;99932.27;1744250;81;26314;-77
2022/12/15 09:21:28;;;;;;;72.97;36.65;;;;;;;-2.42;86.59;99937.36;1739147;81;25893;-80
2022/12/15 09:24:02;;;;;;;79.53;36.38;;;;;;;-2.46;86.57;99937.25;1736574;81;28485;-91
2022/12/15 09:26:33;;;;;;;71.80;32.67;;;;;;;-2.47;86.56;99941.31;1723874;83;26180;-78
2022/12/15 09:29:05;;;;;;;72.03;34.75;;;;;;;-2.54;86.37;99925.23;1708505;82;25386;-85
2022/12/15 09:31:32;;;;;;;72.85;35.43;;;;;;;-2.48;86.30;99947.03;1734512;81;25757;-86
2022/12/15 09:34:00;;;;;;;95.67;41.53;;;;;;;-2.42;86.52;99960.16;1731821;82;25333;-82
2022/12/15 09:36:29;;;;;;;150.72;61.37;;;;;;;-2.42;86.52;99960.16;1721589;82;27720;-76
2022/12/15 09:39:06;;;;;;;117.62;53.92;;;;;;;-2.42;86.23;99960.96;1728839;81;25803;-90
2022/12/15 09:41:35;;;;;;;118.30;54.03;;;;;;;-2.44;86.19;99963.37;1729326;81;25848;-74
2022/12/15 09:44:15;;;;;;;145.02;70.95;;;;;;;-2.42;86.20;99965.40;1731137;81;25800;-74
2022/12/15 09:47:11;;;;;;;353.30;156.52;;;;;;;-2.38;86.34;99961.11;1716436;82;25283;-74
2022/12/15 09:49:57;;;;;;;124.75;65.30;;;;;;;-2.39;85.96;99965.98;1712412;82;27479;-72
2022/12/15 09:52:46;;;;;;;102.32;50.52;;;;;;;-2.38;86.16;99970.75;1720631;83;25871;-73
2022/12/15 09:55:25;;;;;;;88.62;47.50;;;;;;;-2.43;85.79;99963.72;1700387;83;26506;-74
2022/12/15 09:57:57;;;;;;;90.57;43.73;;;;;;;-2.48;85.98;99957.52;1735297;81;26381;-86
2022/12/15 10:00:32;;;;;;;132.57;66.10;;;;;;;-2.45;85.68;99974.34;1740564;81;25835;-86
2022/12/15 10:03:42;;;;;;;92.55;46.58;;;;;;;-2.45;85.68;99974.34;1720892;81;27441;-88
2022/12/15 10:06:26;;;;;;;81.32;39.63;;;;;;;-2.50;85.42;99974.31;1724669;81;25758;-75
2022/12/15 10:09:04;;;;;;;80.90;39.92;;;;;;;-2.60;85.27;99978.61;1727599;81;25806;-86
2022/12/15 10:12:04;;;;;;;80.47;37.90;;;;;;;-2.70;85.68;99982.44;1719199;82;26392;-89
2022/12/15 10:14:45;;;;;;;80.40;38.23;;;;;;;-2.72;85.47;100000.07;1726977;83;26385;-80
2022/12/15 10:17:29;;;;;;;81.80;36.58;;;;;;;-2.72;85.47;100000.07;1720243;83;27547;-80
2022/12/15 10:20:17;;;;;;;108.07;51.20;;;;;;;-2.83;85.30;99993.97;1732950;81;26003;-82
2022/12/15 10:22:44;;;;;;;78.50;38.23;;;;;;;-2.89;85.43;99997.91;1724430;82;25313;-82
2022/12/15 10:25:26;;;;;;;84.60;40.23;;;;;;;-2.90;85.74;100001.92;1728971;81;25766;-83
2022/12/15 10:28:22;;;;;;;80.25;37.53;;;;;;;-2.89;86.06;100004.45;1723406;81;26136;-84
2022/12/15 10:31:03;;;;;;;72.82;33.58;;;;;;;-2.84;86.33;100013.25;1716120;81;27552;-85
2022/12/15 10:33:35;;;;;;;;;;;;;;;-2.80;86.26;100020.77;1709960;82;26036;-85
2022/12/15 10:36:06;;;;;;;65.85;31.25;;;;;;;-2.73;86.41;100018.52;1718536;81;25949;-85
2022/12/15 10:38:41;;;;;;;79.27;38.70;;;;;;;-2.71;86.18;100012.67;1707421;83;25839;-83
2022/12/15 10:41:14;;;;;;;79.80;38.42;;;;;;;-2.73;86.23;100014.11;1720120;83;25723;-80
2022/12/15 10:43:44;;;;;;;92.97;46.40;;;;;;;-2.73;86.44;100023.28;1732255;81;27457;-80
2022/12/15 10:46:27;;;;;;;94.95;46.10;;;;;;;-2.68;86.45;100025.09;1709443;81;25338;-91
2022/12/15 10:49:08;;;;;;;95.15;43.48;;;;;;;-2.65;86.40;100016.98;1705262;82;25322;-89
2022/12/15 10:52:24;;;;;;;104.95;47.53;;;;;;;-2.62;86.37;100031.17;1700754;81;25514;-89
2022/12/15 10:54:53;;;;;;;135.12;55.33;;;;;;;-2.58;86.40;100040.94;1732903;81;25523;-91
2022/12/15 10:57:28;;;;;;;111.88;51.45;;;;;;;-2.59;86.13;100035.35;1712744;82;27518;-88
2022/12/15 11:00:17;;;;;;;125.27;58.00;;;;;;;-2.59;86.12;100034.85;1730139;82;25769;-75
2022/12/15 11:02:43;;;;;;;104.75;46.50;;;;;;;-2.55;86.39;100037.63;1728544;81;25923;-75
2022/12/15 11:05:16;;;;;;;108.32;49.27;;;;;;;-2.51;86.26;100035.59;1727070;81;25819;-88
2022/12/15 11:07:52;;;;;;;92.02;43.55;;;;;;;-2.48;86.39;100041.42;1729333;82;25741;-85
2022/12/15 11:13:24;;;;;;;92.20;43.15;;;;;;;-2.44;86.15;100040.23;1695922;82;25878;-88
2022/12/15 11:15:52;;;;;;;96.28;45.52;;;;;;;-2.45;86.12;100037.27;1728753;82;25324;-83
2022/12/15 11:18:25;;;;;;;108.05;47.27;;;;;;;-2.42;86.10;100042.76;1723599;82;25788;-82
2022/12/15 11:21:15;;;;;;;105.72;51.55;;;;;;;-2.39;86.28;100047.28;1732915;81;25854;-74
2022/12/15 11:24:05;;;;;;;148.35;69.50;;;;;;;-2.36;86.20;100050.98;1722523;83;28378;-74
2022/12/15 11:26:48;;;;;;;115.97;52.33;;;;;;;-2.33;86.15;100049.89;1707126;81;25918;-74
2022/12/15 11:29:28;;;;;;;105.50;49.48;;;;;;;-2.27;86.17;100057.78;1728023;82;25752;-74
2022/12/15 11:31:55;;;;;;;116.42;57.43;;;;;;;-2.24;86.32;100060.14;1726419;81;25791;-86
2022/12/15 11:34:25;;;;;;;114.77;51.45;;;;;;;-2.22;86.02;100072.70;1705946;83;26159;-75
2022/12/15 11:37:30;;;;;;;104.63;48.73;;;;;;;-2.23;86.02;100078.88;1707897;83;27441;-87
2022/12/15 11:40:20;;;;;;;128.72;57.73;;;;;;;-2.21;86.10;100076.50;1728954;82;26033;-87
2022/12/15 11:42:58;;;;;;;118.60;55.40;;;;;;;-2.19;85.98;100077.22;1732664;82;25736;-87
2022/12/15 11:45:48;;;;;;;97.22;44.48;;;;;;;-2.16;86.00;100081.40;1730952;81;25795;-78
2022/12/15 11:48:21;;;;;;;128.53;57.78;;;;;;;-2.18;85.80;100084.12;1724834;82;25884;-90
2022/12/15 11:51:09;;;;;;;135.50;60.45;;;;;;;-2.17;85.99;100090.20;1733931;82;27518;-93
2022/12/15 11:54:17;;;;;;;;;;;;;;;;;;;;;
2022/12/15 11:57:02;;;;;;;135.48;60.60;;;;;;;-2.21;85.95;100096.65;1690544;83;25334;-91
2022/12/15 12:00:01;;;;;;;113.57;55.00;;;;;;;-2.26;85.94;100102.24;1736842;81;25867;-76
2022/12/15 12:02:41;;;;;;;117.40;51.10;;;;;;;-2.26;85.94;100102.24;1725484;81;25672;-86
2022/12/15 12:05:53;;;;;;;95.45;48.13;;;;;;;-2.29;85.85;100119.55;1714473;83;28578;-87
2022/12/15 12:08:28;;;;;;;63.78;30.97;;;;;;;-2.31;86.08;100114.90;1719306;82;25884;-76
2022/12/15 12:11:17;;;;;;;65.45;31.73;;;;;;;-2.41;85.78;100111.28;1727903;81;25746;-76
2022/12/15 12:14:01;;;;;;;63.83;29.15;;;;;;;-2.45;85.87;100121.65;1734400;81;25919;-75
2022/12/15 12:16:38;;;;;;;61.88;26.37;;;;;;;-2.52;85.73;100127.83;1729062;81;25284;-75
2022/12/15 12:19:23;;;;;;;57.53;26.77;;;;;;;-2.62;85.88;100132.10;1730469;82;27510;-75
2022/12/15 12:21:55;;;;;;;61.53;27.65;;;;;;;-2.66;85.93;100129.82;1732346;81;26483;-75
2022/12/15 12:25:04;;;;;;;64.45;27.98;;;;;;;-2.65;86.24;100136.75;1724571;83;25721;-75
2022/12/15 12:27:55;;;;;;;74.70;31.30;;;;;;;-2.68;86.43;100133.88;1700482;83;26462;-75
2022/12/15 12:30:27;;;;;;;65.72;29.70;;;;;;;-2.73;86.44;100139.08;1736310;81;26387;-76
2022/12/15 12:33:30;;;;;;;77.62;33.95;;;;;;;-2.72;86.50;100145.55;1719711;83;28239;-75
2022/12/15 12:36:05;;;;;;;64.20;28.32;;;;;;;-2.74;86.66;100140.89;1728120;81;25999;-75
2022/12/15 12:38:40;;;;;;;73.80;31.57;;;;;;;-2.73;86.92;100150.88;1724755;81;26357;-88
2022/12/15 12:41:30;;;;;;;84.20;43.48;;;;;;;-2.75;86.86;100157.55;1715306;81;44836;-87
2022/12/15 12:44:07;;;;;;;;;;;;;;;-2.59;86.67;100157.26;1699447;81;25833;-74
2022/12/15 12:46:48;;;;;;;79.03;37.00;;;;;;;-2.59;86.60;100155.45;1727859;81;27633;-85
2022/12/15 12:49:28;;;;;;;70.25;31.30;;;;;;;-2.63;86.72;100165.00;1713765;82;27121;-82
2022/12/15 12:51:58;;;;;;;70.10;30.77;;;;;;;-2.65;86.74;100163.78;1735229;81;25841;-84
2022/12/15 12:54:41;;;;;;;75.80;32.30;;;;;;;-2.69;86.76;100167.58;1719697;82;25832;-83
2022/12/15 12:57:16;;;;;;;72.85;28.17;;;;;;;-2.72;86.89;100170.91;1716318;81;25657;-84
2022/12/15 12:59:58;;;;;;;71.97;30.52;;;;;;;-2.75;86.96;100168.03;1738097;81;27438;-82
2022/12/15 13:02:39;;;;;;;69.95;29.57;;;;;;;-2.78;86.91;100175.30;1718371;81;26114;-76
2022/12/15 13:05:31;;;;;;;76.47;28.32;;;;;;;-2.78;87.20;100171.37;1733324;81;25867;-76
2022/12/15 13:08:11;;;;;;;72.60;29.70;;;;;;;-2.79;87.14;100178.86;1720834;82;26547;-88
2022/12/15 13:10:46;;;;;;;72.78;30.23;;;;;;;-2.78;87.32;100183.98;1728657;81;25875;-82
2022/12/15 13:13:40;;;;;;;75.70;30.82;;;;;;;-2.80;87.16;100188.99;1729226;82;27404;-82
2022/12/15 13:16:11;;;;;;;87.92;33.63;;;;;;;-2.80;87.38;100186.37;1734462;81;25937;-82
2022/12/15 13:19:05;;;;;;;91.02;36.55;;;;;;;-2.74;87.66;100195.09;1732698;82;26430;-84
2022/12/15 13:21:51;;;;;;;91.02;37.17;;;;;;;-2.72;87.63;100192.72;1719666;81;25880;-83
2022/12/15 13:24:42;;;;;;;88.58;35.95;;;;;;;-2.72;87.63;100192.72;1725337;81;25811;-87
2022/12/15 13:27:14;;;;;;;98.07;40.05;;;;;;;-2.63;87.63;100209.06;1720230;82;28320;-86
2022/12/15 13:30:10;;;;;;;100.62;39.95;;;;;;;-2.69;87.56;100205.59;1721612;82;25832;-87
2022/12/15 13:32:40;;;;;;;92.22;40.25;;;;;;;-2.71;87.67;100207.48;1715243;83;25899;-85
2022/12/15 13:35:15;;;;;;;88.17;39.08;;;;;;;-2.66;87.85;100213.70;1733214;81;25748;-88
2022/12/15 13:37:52;;;;;;;99.70;45.95;;;;;;;-2.68;87.82;100202.03;1729421;82;25367;-84
2022/12/15 13:40:41;;;;;;;86.70;40.92;;;;;;;-2.69;87.51;100217.84;1726617;83;27444;-90
2022/12/15 13:43:36;;;;;;;73.30;33.48;;;;;;;-2.69;87.51;100217.84;1731723;82;25736;-83
2022/12/15 13:46:16;;;;;;;72.27;31.00;;;;;;;-2.76;88.04;100219.27;1722004;81;25837;-81
2022/12/15 13:48:50;;;;;;;78.60;36.33;;;;;;;-2.76;88.04;100219.27;1730923;81;26567;-91
2022/12/15 13:51:39;;;;;;;75.75;33.80;;;;;;;-2.80;87.59;100229.12;1720685;81;25755;-83
2022/12/15 13:54:36;;;;;;;76.40;37.15;;;;;;;-2.81;87.94;100222.22;1710443;81;27541;-92
2022/12/15 13:57:17;;;;;;;91.63;42.95;;;;;;;-2.78;87.91;100229.84;1695225;83;25388;-88
2022/12/15 13:59:47;;;;;;;88.50;45.58;;;;;;;-2.82;87.63;100220.53;1721428;82;25797;-82
2022/12/15 14:02:33;;;;;;;71.90;35.17;;;;;;;-2.77;87.89;100243.79;1714750;83;25860;-79
2022/12/15 14:05:17;;;;;;;72.47;33.60;;;;;;;-2.84;87.92;100238.16;1724346;82;26471;-74
2022/12/15 14:07:51;;;;;;;69.03;29.72;;;;;;;-2.81;87.82;100248.42;1715129;81;27310;-91